Report METAR

 

LIML - Milano/Linate, Italy
Distance from station: NO 27km
Dati ricevuti: 18/10/2017 17:50
Mist, Parz. nuvoloso
Mist, Parz. nuvoloso
 Vento da S
Vento: S 4 km/h
Temperatura: 20°C
P.to Rugiada: 10°C
Umidità: 53%
Barometro: 1017 hPa
Summary: Mist
Nuvole: Parz. nuvoloso
Visibility: 4 km
2017/10/18 15:50 LIML 181550Z 19002KT 4000 BR NSC 20/10 Q1017 NOSIG
LIME - Bergamo/Orio Ser, Italy
Distance from station: NNE 43km
Dati ricevuti: 18/10/2017 17:50
Mist, Parz. nuvoloso
Mist, Parz. nuvoloso
 Vento da S
Vento: S 7 km/h
Temperatura: 19°C
P.to Rugiada: 11°C
Umidità: 60%
Barometro: 1017 hPa
Summary: Mist
Nuvole: Parz. nuvoloso
Visibility: 5 km
2017/10/18 15:50 LIME 181550Z 19004KT 160V230 5000 BR NSC 19/11 Q1017 NOSIG
 
LIMS - Piacenza, it-Afb, Italy
Distance from station: SSE 45km
Dati ricevuti: 18/10/2017 17:55
Mist, Parz. nuvoloso
Mist, Parz. nuvoloso
 Vento da ESE
Vento: ESE 7 km/h
Temperatura: 18°C
P.to Rugiada: 12°C
Umidità: 68%
Barometro: 1016 hPa
Summary: Mist
Nuvole: Parz. nuvoloso
Visibility: 5 km
2017/10/18 15:55 LIMS 181555Z 12004KT 5000 BR NSC 18/12 Q1016
LIPO - Brescia/Montichi, Italy
Distance from station: ENE 65km
Dati ricevuti: 18/10/2017 17:50
Mist, Parz. nuvoloso
Mist, Parz. nuvoloso
 Vento da OSO
Vento: OSO 7 km/h
Temperatura: 20°C
P.to Rugiada: 11°C
Umidità: 56%
Barometro: 1017 hPa
Summary: Mist
Nuvole: Parz. nuvoloso
Visibility: 4 km
2017/10/18 15:50 LIPO 181550Z 25004KT 4000 BR NSC 20/11 Q1017